sensor_id;sensor_type;location;lat;lon;timestamp;P1;durP1;ratioP1;P2;durP2;ratioP2
72926;SDS011;61071;51.618;19.388;2023-05-07T00:00:02;4.10;;;3.15;;
72926;SDS011;61071;51.618;19.388;2023-05-07T00:02:32;2.87;;;2.57;;
72926;SDS011;61071;51.618;19.388;2023-05-07T00:04:58;3.25;;;2.28;;
72926;SDS011;61071;51.618;19.388;2023-05-07T00:07:24;3.22;;;2.90;;
72926;SDS011;61071;51.618;19.388;2023-05-07T00:09:50;3.15;;;2.70;;
72926;SDS011;61071;51.618;19.388;2023-05-07T00:12:16;4.20;;;2.80;;
72926;SDS011;61071;51.618;19.388;2023-05-07T00:14:41;4.75;;;2.85;;
72926;SDS011;61071;51.618;19.388;2023-05-07T00:17:07;2.85;;;2.58;;
72926;SDS011;61071;51.618;19.388;2023-05-07T00:19:33;4.07;;;2.30;;
72926;SDS011;61071;51.618;19.388;2023-05-07T00:21:58;4.00;;;2.50;;
72926;SDS011;61071;51.618;19.388;2023-05-07T00:24:24;3.28;;;2.67;;
72926;SDS011;61071;51.618;19.388;2023-05-07T00:26:50;3.40;;;2.38;;
72926;SDS011;61071;51.618;19.388;2023-05-07T00:29:16;5.47;;;2.85;;
72926;SDS011;61071;51.618;19.388;2023-05-07T00:31:41;4.80;;;2.63;;
72926;SDS011;61071;51.618;19.388;2023-05-07T00:34:07;7.05;;;2.63;;
72926;SDS011;61071;51.618;19.388;2023-05-07T00:36:33;4.05;;;2.70;;
72926;SDS011;61071;51.618;19.388;2023-05-07T00:38:59;4.32;;;2.50;;
72926;SDS011;61071;51.618;19.388;2023-05-07T00:41:28;3.28;;;2.70;;
72926;SDS011;61071;51.618;19.388;2023-05-07T00:43:56;3.33;;;2.70;;
72926;SDS011;61071;51.618;19.388;2023-05-07T00:46:21;4.88;;;2.50;;
72926;SDS011;61071;51.618;19.388;2023-05-07T00:48:49;6.15;;;3.25;;
72926;SDS011;61071;51.618;19.388;2023-05-07T00:51:16;7.03;;;3.22;;
72926;SDS011;61071;51.618;19.388;2023-05-07T00:53:43;3.58;;;3.17;;
72926;SDS011;61071;51.618;19.388;2023-05-07T00:56:10;4.50;;;3.00;;
72926;SDS011;61071;51.618;19.388;2023-05-07T00:58:36;3.08;;;2.78;;
72926;SDS011;61071;51.618;19.388;2023-05-07T01:01:03;3.85;;;2.95;;
72926;SDS011;61071;51.618;19.388;2023-05-07T01:03:28;5.90;;;3.05;;
72926;SDS011;61071;51.618;19.388;2023-05-07T01:05:54;3.55;;;2.95;;
72926;SDS011;61071;51.618;19.388;2023-05-07T01:08:24;3.35;;;2.25;;
72926;SDS011;61071;51.618;19.388;2023-05-07T01:10:52;3.53;;;2.50;;
72926;SDS011;61071;51.618;19.388;2023-05-07T01:13:19;3.60;;;3.05;;
72926;SDS011;61071;51.618;19.388;2023-05-07T01:15:45;5.53;;;2.85;;
72926;SDS011;61071;51.618;19.388;2023-05-07T01:18:11;2.75;;;2.53;;
72926;SDS011;61071;51.618;19.388;2023-05-07T01:20:36;3.45;;;2.85;;
72926;SDS011;61071;51.618;19.388;2023-05-07T01:23:02;3.60;;;3.00;;
72926;SDS011;61071;51.618;19.388;2023-05-07T01:25:29;2.60;;;2.30;;
72926;SDS011;61071;51.618;19.388;2023-05-07T01:27:55;4.75;;;2.65;;
72926;SDS011;61071;51.618;19.388;2023-05-07T01:30:21;3.35;;;2.60;;
72926;SDS011;61071;51.618;19.388;2023-05-07T01:32:49;4.05;;;2.40;;
72926;SDS011;61071;51.618;19.388;2023-05-07T01:35:24;3.30;;;2.50;;
72926;SDS011;61071;51.618;19.388;2023-05-07T01:37:55;3.72;;;2.63;;
72926;SDS011;61071;51.618;19.388;2023-05-07T01:40:22;4.70;;;2.60;;
72926;SDS011;61071;51.618;19.388;2023-05-07T01:42:50;3.50;;;2.63;;
72926;SDS011;61071;51.618;19.388;2023-05-07T01:45:16;4.13;;;2.47;;
72926;SDS011;61071;51.618;19.388;2023-05-07T01:47:42;4.22;;;2.53;;
72926;SDS011;61071;51.618;19.388;2023-05-07T01:50:09;3.53;;;2.70;;
72926;SDS011;61071;51.618;19.388;2023-05-07T01:52:36;3.17;;;2.78;;
72926;SDS011;61071;51.618;19.388;2023-05-07T01:55:03;5.53;;;2.97;;
72926;SDS011;61071;51.618;19.388;2023-05-07T01:57:31;4.78;;;3.35;;
72926;SDS011;61071;51.618;19.388;2023-05-07T01:59:57;5.30;;;3.40;;
72926;SDS011;61071;51.618;19.388;2023-05-07T02:02:22;4.68;;;3.50;;
72926;SDS011;61071;51.618;19.388;2023-05-07T02:04:48;6.43;;;3.65;;
72926;SDS011;61071;51.618;19.388;2023-05-07T02:07:14;5.88;;;3.33;;
72926;SDS011;61071;51.618;19.388;2023-05-07T02:09:39;4.93;;;3.63;;
72926;SDS011;61071;51.618;19.388;2023-05-07T02:12:05;7.18;;;3.65;;
72926;SDS011;61071;51.618;19.388;2023-05-07T02:14:31;8.10;;;3.85;;
72926;SDS011;61071;51.618;19.388;2023-05-07T02:16:57;7.10;;;3.72;;
72926;SDS011;61071;51.618;19.388;2023-05-07T02:19:22;6.35;;;3.75;;
72926;SDS011;61071;51.618;19.388;2023-05-07T02:21:48;7.45;;;3.80;;
72926;SDS011;61071;51.618;19.388;2023-05-07T02:24:14;5.10;;;3.72;;
72926;SDS011;61071;51.618;19.388;2023-05-07T02:26:40;6.85;;;4.32;;
72926;SDS011;61071;51.618;19.388;2023-05-07T02:29:06;5.85;;;3.85;;
72926;SDS011;61071;51.618;19.388;2023-05-07T02:31:32;6.03;;;3.58;;
72926;SDS011;61071;51.618;19.388;2023-05-07T02:33:59;4.68;;;3.53;;
72926;SDS011;61071;51.618;19.388;2023-05-07T02:36:25;5.47;;;3.53;;
72926;SDS011;61071;51.618;19.388;2023-05-07T02:38:51;5.72;;;3.40;;
72926;SDS011;61071;51.618;19.388;2023-05-07T02:41:17;6.05;;;3.80;;
72926;SDS011;61071;51.618;19.388;2023-05-07T02:43:43;4.65;;;3.60;;
72926;SDS011;61071;51.618;19.388;2023-05-07T02:46:09;8.18;;;3.65;;
72926;SDS011;61071;51.618;19.388;2023-05-07T02:48:35;4.38;;;3.63;;
72926;SDS011;61071;51.618;19.388;2023-05-07T02:51:01;4.10;;;3.28;;
72926;SDS011;61071;51.618;19.388;2023-05-07T02:53:28;5.63;;;3.65;;
72926;SDS011;61071;51.618;19.388;2023-05-07T02:55:57;6.10;;;3.85;;
72926;SDS011;61071;51.618;19.388;2023-05-07T02:58:25;6.40;;;4.03;;
72926;SDS011;61071;51.618;19.388;2023-05-07T03:00:51;5.78;;;3.60;;
72926;SDS011;61071;51.618;19.388;2023-05-07T03:03:19;7.70;;;4.25;;
72926;SDS011;61071;51.618;19.388;2023-05-07T03:05:45;7.07;;;3.95;;
72926;SDS011;61071;51.618;19.388;2023-05-07T03:08:11;4.38;;;3.33;;
72926;SDS011;61071;51.618;19.388;2023-05-07T03:10:37;6.55;;;3.70;;
72926;SDS011;61071;51.618;19.388;2023-05-07T03:13:04;7.05;;;3.67;;
72926;SDS011;61071;51.618;19.388;2023-05-07T03:15:30;4.40;;;3.78;;
72926;SDS011;61071;51.618;19.388;2023-05-07T03:17:55;5.22;;;3.47;;
72926;SDS011;61071;51.618;19.388;2023-05-07T03:20:21;3.35;;;3.05;;
72926;SDS011;61071;51.618;19.388;2023-05-07T03:22:47;5.05;;;3.55;;
72926;SDS011;61071;51.618;19.388;2023-05-07T03:25:13;5.00;;;3.40;;
72926;SDS011;61071;51.618;19.388;2023-05-07T03:27:40;4.50;;;3.60;;
72926;SDS011;61071;51.618;19.388;2023-05-07T03:30:07;5.15;;;3.28;;
72926;SDS011;61071;51.618;19.388;2023-05-07T03:32:34;5.03;;;3.60;;
72926;SDS011;61071;51.618;19.388;2023-05-07T03:35:00;4.93;;;3.85;;
72926;SDS011;61071;51.618;19.388;2023-05-07T03:37:27;6.57;;;3.40;;
72926;SDS011;61071;51.618;19.388;2023-05-07T03:39:53;4.40;;;3.60;;
72926;SDS011;61071;51.618;19.388;2023-05-07T03:42:19;4.88;;;3.63;;
72926;SDS011;61071;51.618;19.388;2023-05-07T03:44:44;3.25;;;2.90;;
72926;SDS011;61071;51.618;19.388;2023-05-07T03:47:10;6.63;;;3.65;;
72926;SDS011;61071;51.618;19.388;2023-05-07T03:49:36;4.30;;;3.30;;
72926;SDS011;61071;51.618;19.388;2023-05-07T03:52:02;6.35;;;3.72;;
72926;SDS011;61071;51.618;19.388;2023-05-07T03:54:28;6.10;;;3.75;;
72926;SDS011;61071;51.618;19.388;2023-05-07T03:56:54;4.20;;;3.47;;
72926;SDS011;61071;51.618;19.388;2023-05-07T03:59:19;4.45;;;3.60;;
72926;SDS011;61071;51.618;19.388;2023-05-07T04:01:45;4.93;;;3.65;;
72926;SDS011;61071;51.618;19.388;2023-05-07T04:04:11;7.32;;;3.50;;
72926;SDS011;61071;51.618;19.388;2023-05-07T04:06:36;5.65;;;3.30;;
72926;SDS011;61071;51.618;19.388;2023-05-07T04:09:02;5.78;;;3.75;;
72926;SDS011;61071;51.618;19.388;2023-05-07T04:11:28;4.78;;;3.30;;
72926;SDS011;61071;51.618;19.388;2023-05-07T04:13:54;7.30;;;4.00;;
72926;SDS011;61071;51.618;19.388;2023-05-07T04:16:20;5.28;;;3.67;;
72926;SDS011;61071;51.618;19.388;2023-05-07T04:18:45;4.68;;;3.80;;
72926;SDS011;61071;51.618;19.388;2023-05-07T04:21:15;5.95;;;3.67;;
72926;SDS011;61071;51.618;19.388;2023-05-07T04:23:42;7.40;;;4.03;;
72926;SDS011;61071;51.618;19.388;2023-05-07T04:26:08;5.82;;;3.60;;
72926;SDS011;61071;51.618;19.388;2023-05-07T04:28:34;5.82;;;3.72;;
72926;SDS011;61071;51.618;19.388;2023-05-07T04:31:01;9.38;;;4.20;;
72926;SDS011;61071;51.618;19.388;2023-05-07T04:33:27;5.57;;;3.42;;
72926;SDS011;61071;51.618;19.388;2023-05-07T04:35:52;6.63;;;3.75;;
72926;SDS011;61071;51.618;19.388;2023-05-07T04:38:18;6.18;;;3.65;;
72926;SDS011;61071;51.618;19.388;2023-05-07T04:40:44;6.38;;;3.42;;
72926;SDS011;61071;51.618;19.388;2023-05-07T04:43:11;5.57;;;3.95;;
72926;SDS011;61071;51.618;19.388;2023-05-07T04:45:36;6.53;;;3.88;;
72926;SDS011;61071;51.618;19.388;2023-05-07T04:48:04;6.53;;;4.00;;
72926;SDS011;61071;51.618;19.388;2023-05-07T04:50:30;4.20;;;3.10;;
72926;SDS011;61071;51.618;19.388;2023-05-07T04:52:56;5.90;;;3.45;;
72926;SDS011;61071;51.618;19.388;2023-05-07T04:55:22;5.05;;;3.63;;
72926;SDS011;61071;51.618;19.388;2023-05-07T04:57:47;5.10;;;3.58;;
72926;SDS011;61071;51.618;19.388;2023-05-07T05:00:13;7.70;;;3.30;;
72926;SDS011;61071;51.618;19.388;2023-05-07T05:02:40;5.85;;;3.13;;
72926;SDS011;61071;51.618;19.388;2023-05-07T05:05:06;7.20;;;3.65;;
72926;SDS011;61071;51.618;19.388;2023-05-07T05:07:32;4.57;;;3.55;;
72926;SDS011;61071;51.618;19.388;2023-05-07T05:09:58;4.10;;;3.45;;
72926;SDS011;61071;51.618;19.388;2023-05-07T05:12:24;3.35;;;2.60;;
72926;SDS011;61071;51.618;19.388;2023-05-07T05:14:50;7.00;;;3.05;;
72926;SDS011;61071;51.618;19.388;2023-05-07T05:17:16;4.00;;;2.80;;
72926;SDS011;61071;51.618;19.388;2023-05-07T05:19:41;5.15;;;3.13;;
72926;SDS011;61071;51.618;19.388;2023-05-07T05:22:07;3.42;;;2.95;;
72926;SDS011;61071;51.618;19.388;2023-05-07T05:24:33;3.88;;;3.10;;
72926;SDS011;61071;51.618;19.388;2023-05-07T05:26:58;4.65;;;3.50;;
72926;SDS011;61071;51.618;19.388;2023-05-07T05:29:27;3.55;;;2.70;;
72926;SDS011;61071;51.618;19.388;2023-05-07T05:31:52;6.88;;;3.38;;
72926;SDS011;61071;51.618;19.388;2023-05-07T05:34:18;5.95;;;3.28;;
72926;SDS011;61071;51.618;19.388;2023-05-07T05:36:47;3.55;;;2.90;;
72926;SDS011;61071;51.618;19.388;2023-05-07T05:39:12;4.65;;;3.10;;
72926;SDS011;61071;51.618;19.388;2023-05-07T05:41:39;5.50;;;3.40;;
72926;SDS011;61071;51.618;19.388;2023-05-07T05:44:05;4.00;;;3.47;;
72926;SDS011;61071;51.618;19.388;2023-05-07T05:46:31;3.85;;;3.20;;
72926;SDS011;61071;51.618;19.388;2023-05-07T05:48:57;3.55;;;3.00;;
72926;SDS011;61071;51.618;19.388;2023-05-07T05:51:23;3.28;;;2.88;;
72926;SDS011;61071;51.618;19.388;2023-05-07T05:53:48;4.00;;;2.83;;
72926;SDS011;61071;51.618;19.388;2023-05-07T05:56:15;4.53;;;3.45;;
72926;SDS011;61071;51.618;19.388;2023-05-07T05:58:41;4.63;;;3.33;;
72926;SDS011;61071;51.618;19.388;2023-05-07T06:01:07;5.55;;;4.22;;
72926;SDS011;61071;51.618;19.388;2023-05-07T06:03:33;5.90;;;3.42;;
72926;SDS011;61071;51.618;19.388;2023-05-07T06:05:59;5.03;;;2.95;;
72926;SDS011;61071;51.618;19.388;2023-05-07T06:08:29;4.70;;;2.63;;
72926;SDS011;61071;51.618;19.388;2023-05-07T06:10:55;4.25;;;3.05;;
72926;SDS011;61071;51.618;19.388;2023-05-07T06:13:22;4.25;;;3.05;;
72926;SDS011;61071;51.618;19.388;2023-05-07T06:15:48;3.80;;;2.83;;
72926;SDS011;61071;51.618;19.388;2023-05-07T06:18:14;4.85;;;3.38;;
72926;SDS011;61071;51.618;19.388;2023-05-07T06:20:40;3.75;;;3.00;;
72926;SDS011;61071;51.618;19.388;2023-05-07T06:23:06;4.10;;;3.13;;
72926;SDS011;61071;51.618;19.388;2023-05-07T06:25:32;3.10;;;2.80;;
72926;SDS011;61071;51.618;19.388;2023-05-07T06:27:58;4.30;;;3.03;;
72926;SDS011;61071;51.618;19.388;2023-05-07T06:30:23;4.45;;;3.15;;
72926;SDS011;61071;51.618;19.388;2023-05-07T06:32:49;7.20;;;4.15;;
72926;SDS011;61071;51.618;19.388;2023-05-07T06:35:15;3.85;;;2.88;;
72926;SDS011;61071;51.618;19.388;2023-05-07T06:37:41;4.30;;;3.50;;
72926;SDS011;61071;51.618;19.388;2023-05-07T06:40:09;5.43;;;3.28;;
72926;SDS011;61071;51.618;19.388;2023-05-07T06:42:36;6.07;;;3.22;;
72926;SDS011;61071;51.618;19.388;2023-05-07T06:45:02;5.43;;;3.00;;
72926;SDS011;61071;51.618;19.388;2023-05-07T06:47:28;6.25;;;3.00;;
72926;SDS011;61071;51.618;19.388;2023-05-07T06:49:54;4.55;;;3.28;;
72926;SDS011;61071;51.618;19.388;2023-05-07T06:52:20;3.90;;;3.00;;
72926;SDS011;61071;51.618;19.388;2023-05-07T06:54:45;3.50;;;3.10;;
72926;SDS011;61071;51.618;19.388;2023-05-07T06:57:11;3.45;;;2.83;;
72926;SDS011;61071;51.618;19.388;2023-05-07T06:59:37;3.28;;;2.50;;
72926;SDS011;61071;51.618;19.388;2023-05-07T07:02:02;3.80;;;3.15;;
72926;SDS011;61071;51.618;19.388;2023-05-07T07:04:28;3.13;;;2.67;;
72926;SDS011;61071;51.618;19.388;2023-05-07T07:06:54;5.70;;;2.95;;
72926;SDS011;61071;51.618;19.388;2023-05-07T07:09:21;3.28;;;2.97;;
72926;SDS011;61071;51.618;19.388;2023-05-07T07:11:47;3.17;;;2.83;;
72926;SDS011;61071;51.618;19.388;2023-05-07T07:14:13;6.22;;;2.83;;
72926;SDS011;61071;51.618;19.388;2023-05-07T07:16:39;4.32;;;3.22;;
72926;SDS011;61071;51.618;19.388;2023-05-07T07:19:05;4.05;;;3.08;;
72926;SDS011;61071;51.618;19.388;2023-05-07T07:21:31;4.72;;;3.00;;
72926;SDS011;61071;51.618;19.388;2023-05-07T07:23:57;3.67;;;2.83;;
72926;SDS011;61071;51.618;19.388;2023-05-07T07:26:23;3.00;;;2.70;;
72926;SDS011;61071;51.618;19.388;2023-05-07T07:28:49;3.83;;;2.90;;
72926;SDS011;61071;51.618;19.388;2023-05-07T07:31:14;4.80;;;3.20;;
72926;SDS011;61071;51.618;19.388;2023-05-07T07:33:40;3.72;;;2.70;;
72926;SDS011;61071;51.618;19.388;2023-05-07T07:36:06;4.55;;;2.90;;
72926;SDS011;61071;51.618;19.388;2023-05-07T07:38:33;5.10;;;3.10;;
72926;SDS011;61071;51.618;19.388;2023-05-07T07:40:59;5.45;;;3.00;;
72926;SDS011;61071;51.618;19.388;2023-05-07T07:43:26;4.03;;;3.53;;
72926;SDS011;61071;51.618;19.388;2023-05-07T07:45:52;3.65;;;3.25;;
72926;SDS011;61071;51.618;19.388;2023-05-07T07:48:18;4.40;;;2.72;;
72926;SDS011;61071;51.618;19.388;2023-05-07T07:50:44;3.42;;;3.08;;
72926;SDS011;61071;51.618;19.388;2023-05-07T07:53:10;2.92;;;2.33;;
72926;SDS011;61071;51.618;19.388;2023-05-07T07:55:39;3.15;;;2.63;;
72926;SDS011;61071;51.618;19.388;2023-05-07T07:58:05;4.63;;;3.08;;
72926;SDS011;61071;51.618;19.388;2023-05-07T08:00:31;3.20;;;2.42;;
72926;SDS011;61071;51.618;19.388;2023-05-07T08:02:57;2.33;;;2.13;;
72926;SDS011;61071;51.618;19.388;2023-05-07T08:05:22;3.22;;;2.30;;
72926;SDS011;61071;51.618;19.388;2023-05-07T08:07:50;6.00;;;2.85;;
72926;SDS011;61071;51.618;19.388;2023-05-07T08:10:18;6.15;;;2.45;;
72926;SDS011;61071;51.618;19.388;2023-05-07T08:12:48;3.80;;;2.70;;
72926;SDS011;61071;51.618;19.388;2023-05-07T08:15:15;3.35;;;2.55;;
72926;SDS011;61071;51.618;19.388;2023-05-07T08:17:41;3.10;;;2.45;;
72926;SDS011;61071;51.618;19.388;2023-05-07T08:20:08;2.88;;;2.40;;
72926;SDS011;61071;51.618;19.388;2023-05-07T08:22:34;3.47;;;2.45;;
72926;SDS011;61071;51.618;19.388;2023-05-07T08:25:03;3.20;;;2.30;;
72926;SDS011;61071;51.618;19.388;2023-05-07T08:27:30;2.88;;;2.50;;
72926;SDS011;61071;51.618;19.388;2023-05-07T08:29:55;3.13;;;2.30;;
72926;SDS011;61071;51.618;19.388;2023-05-07T08:32:21;2.45;;;2.25;;
72926;SDS011;61071;51.618;19.388;2023-05-07T08:34:47;4.60;;;2.63;;
72926;SDS011;61071;51.618;19.388;2023-05-07T08:37:13;4.75;;;2.60;;
72926;SDS011;61071;51.618;19.388;2023-05-07T08:39:39;2.42;;;2.10;;
72926;SDS011;61071;51.618;19.388;2023-05-07T08:42:05;3.33;;;2.42;;
72926;SDS011;61071;51.618;19.388;2023-05-07T08:44:35;3.55;;;2.35;;
72926;SDS011;61071;51.618;19.388;2023-05-07T08:47:03;3.30;;;2.33;;
72926;SDS011;61071;51.618;19.388;2023-05-07T08:49:33;5.60;;;2.30;;
72926;SDS011;61071;51.618;19.388;2023-05-07T08:52:00;4.63;;;2.58;;
72926;SDS011;61071;51.618;19.388;2023-05-07T08:54:27;2.45;;;2.25;;
72926;SDS011;61071;51.618;19.388;2023-05-07T08:56:54;2.67;;;2.20;;
72926;SDS011;61071;51.618;19.388;2023-05-07T08:59:20;3.90;;;2.50;;
72926;SDS011;61071;51.618;19.388;2023-05-07T09:01:46;3.33;;;2.45;;
72926;SDS011;61071;51.618;19.388;2023-05-07T09:04:12;4.00;;;2.50;;
72926;SDS011;61071;51.618;19.388;2023-05-07T09:06:38;3.92;;;2.72;;
72926;SDS011;61071;51.618;19.388;2023-05-07T09:09:07;2.38;;;2.00;;
72926;SDS011;61071;51.618;19.388;2023-05-07T09:11:33;2.85;;;2.28;;
72926;SDS011;61071;51.618;19.388;2023-05-07T09:13:59;4.25;;;3.17;;
72926;SDS011;61071;51.618;19.388;2023-05-07T09:16:28;5.80;;;3.75;;
72926;SDS011;61071;51.618;19.388;2023-05-07T09:18:57;8.45;;;2.95;;
72926;SDS011;61071;51.618;19.388;2023-05-07T09:21:25;4.20;;;2.85;;
72926;SDS011;61071;51.618;19.388;2023-05-07T09:23:53;3.10;;;2.50;;
72926;SDS011;61071;51.618;19.388;2023-05-07T09:26:23;4.38;;;3.13;;
72926;SDS011;61071;51.618;19.388;2023-05-07T09:28:50;2.83;;;2.28;;
72926;SDS011;61071;51.618;19.388;2023-05-07T09:31:17;2.83;;;2.35;;
72926;SDS011;61071;51.618;19.388;2023-05-07T09:33:43;2.92;;;2.40;;
72926;SDS011;61071;51.618;19.388;2023-05-07T09:36:09;2.78;;;2.30;;
72926;SDS011;61071;51.618;19.388;2023-05-07T09:38:36;3.03;;;2.35;;
72926;SDS011;61071;51.618;19.388;2023-05-07T09:41:10;3.45;;;2.35;;
72926;SDS011;61071;51.618;19.388;2023-05-07T09:43:38;3.13;;;2.67;;
72926;SDS011;61071;51.618;19.388;2023-05-07T09:46:06;3.17;;;2.35;;
72926;SDS011;61071;51.618;19.388;2023-05-07T09:48:38;2.60;;;2.20;;
72926;SDS011;61071;51.618;19.388;2023-05-07T09:51:13;2.83;;;2.28;;
72926;SDS011;61071;51.618;19.388;2023-05-07T09:53:53;3.20;;;2.20;;
72926;SDS011;61071;51.618;19.388;2023-05-07T09:56:21;2.42;;;2.22;;
72926;SDS011;61071;51.618;19.388;2023-05-07T09:58:47;3.30;;;2.33;;
72926;SDS011;61071;51.618;19.388;2023-05-07T10:01:16;2.88;;;2.35;;
72926;SDS011;61071;51.618;19.388;2023-05-07T10:03:47;3.65;;;2.45;;
72926;SDS011;61071;51.618;19.388;2023-05-07T10:06:17;5.07;;;3.13;;
72926;SDS011;61071;51.618;19.388;2023-05-07T10:08:45;5.38;;;2.60;;
72926;SDS011;61071;51.618;19.388;2023-05-07T10:11:13;3.22;;;2.67;;
72926;SDS011;61071;51.618;19.388;2023-05-07T10:13:41;3.20;;;2.47;;
72926;SDS011;61071;51.618;19.388;2023-05-07T10:16:09;3.20;;;2.67;;
72926;SDS011;61071;51.618;19.388;2023-05-07T10:18:36;5.45;;;2.97;;
72926;SDS011;61071;51.618;19.388;2023-05-07T10:23:45;4.38;;;2.50;;
72926;SDS011;61071;51.618;19.388;2023-05-07T10:26:23;3.50;;;2.45;;
72926;SDS011;61071;51.618;19.388;2023-05-07T10:28:54;3.17;;;2.83;;
72926;SDS011;61071;51.618;19.388;2023-05-07T10:31:36;4.03;;;3.00;;
72926;SDS011;61071;51.618;19.388;2023-05-07T10:34:34;6.20;;;3.42;;
72926;SDS011;61071;51.618;19.388;2023-05-07T10:37:07;6.22;;;3.40;;
72926;SDS011;61071;51.618;19.388;2023-05-07T10:39:35;4.15;;;2.78;;
72926;SDS011;61071;51.618;19.388;2023-05-07T10:42:11;4.55;;;2.42;;
72926;SDS011;61071;51.618;19.388;2023-05-07T10:44:39;3.15;;;2.67;;
72926;SDS011;61071;51.618;19.388;2023-05-07T10:47:12;2.78;;;2.42;;
72926;SDS011;61071;51.618;19.388;2023-05-07T10:54:44;2.80;;;2.28;;
72926;SDS011;61071;51.618;19.388;2023-05-07T11:00:03;2.83;;;2.35;;
72926;SDS011;61071;51.618;19.388;2023-05-07T11:05:24;2.95;;;2.30;;
72926;SDS011;61071;51.618;19.388;2023-05-07T11:07:57;4.47;;;3.00;;
72926;SDS011;61071;51.618;19.388;2023-05-07T11:16:17;3.45;;;2.55;;
72926;SDS011;61071;51.618;19.388;2023-05-07T11:18:52;4.25;;;2.60;;
72926;SDS011;61071;51.618;19.388;2023-05-07T11:24:06;3.10;;;2.75;;
72926;SDS011;61071;51.618;19.388;2023-05-07T11:29:15;4.83;;;2.63;;
72926;SDS011;61071;51.618;19.388;2023-05-07T11:31:51;3.63;;;2.60;;
72926;SDS011;61071;51.618;19.388;2023-05-07T11:34:22;4.72;;;3.00;;
72926;SDS011;61071;51.618;19.388;2023-05-07T11:36:50;3.67;;;2.60;;
72926;SDS011;61071;51.618;19.388;2023-05-07T11:39:30;3.97;;;2.50;;
72926;SDS011;61071;51.618;19.388;2023-05-07T11:41:59;4.28;;;3.08;;
72926;SDS011;61071;51.618;19.388;2023-05-07T11:44:39;3.40;;;2.72;;
72926;SDS011;61071;51.618;19.388;2023-05-07T11:47:20;3.38;;;2.55;;
72926;SDS011;61071;51.618;19.388;2023-05-07T11:49:53;4.93;;;2.70;;
72926;SDS011;61071;51.618;19.388;2023-05-07T11:52:21;5.70;;;3.35;;
72926;SDS011;61071;51.618;19.388;2023-05-07T11:54:49;4.28;;;2.80;;
72926;SDS011;61071;51.618;19.388;2023-05-07T11:57:20;3.38;;;2.70;;
72926;SDS011;61071;51.618;19.388;2023-05-07T11:59:47;15.07;;;3.05;;
72926;SDS011;61071;51.618;19.388;2023-05-07T12:02:14;4.15;;;3.03;;
72926;SDS011;61071;51.618;19.388;2023-05-07T12:04:41;4.63;;;2.50;;
72926;SDS011;61071;51.618;19.388;2023-05-07T12:07:13;5.13;;;2.90;;
72926;SDS011;61071;51.618;19.388;2023-05-07T12:09:40;4.13;;;3.00;;
72926;SDS011;61071;51.618;19.388;2023-05-07T12:12:07;4.28;;;2.70;;
72926;SDS011;61071;51.618;19.388;2023-05-07T12:14:37;3.95;;;2.75;;
72926;SDS011;61071;51.618;19.388;2023-05-07T12:17:07;2.80;;;2.42;;
72926;SDS011;61071;51.618;19.388;2023-05-07T12:19:35;5.32;;;2.85;;
72926;SDS011;61071;51.618;19.388;2023-05-07T12:22:03;3.25;;;2.70;;
72926;SDS011;61071;51.618;19.388;2023-05-07T12:27:15;3.20;;;2.70;;
72926;SDS011;61071;51.618;19.388;2023-05-07T12:29:49;3.35;;;2.42;;
72926;SDS011;61071;51.618;19.388;2023-05-07T12:32:16;3.78;;;2.75;;
72926;SDS011;61071;51.618;19.388;2023-05-07T12:34:43;2.97;;;2.67;;
72926;SDS011;61071;51.618;19.388;2023-05-07T12:37:11;3.55;;;2.50;;
72926;SDS011;61071;51.618;19.388;2023-05-07T12:39:49;3.55;;;2.58;;
72926;SDS011;61071;51.618;19.388;2023-05-07T12:42:36;3.67;;;2.85;;
72926;SDS011;61071;51.618;19.388;2023-05-07T12:45:10;4.03;;;2.50;;
72926;SDS011;61071;51.618;19.388;2023-05-07T12:47:38;3.10;;;2.40;;
72926;SDS011;61071;51.618;19.388;2023-05-07T12:50:05;3.97;;;3.05;;
72926;SDS011;61071;51.618;19.388;2023-05-07T12:52:32;3.42;;;2.63;;
72926;SDS011;61071;51.618;19.388;2023-05-07T12:55:04;4.15;;;2.80;;
72926;SDS011;61071;51.618;19.388;2023-05-07T12:57:37;3.53;;;2.40;;
72926;SDS011;61071;51.618;19.388;2023-05-07T13:00:11;3.33;;;2.50;;
72926;SDS011;61071;51.618;19.388;2023-05-07T13:02:43;2.67;;;2.30;;
72926;SDS011;61071;51.618;19.388;2023-05-07T13:05:10;5.47;;;2.55;;
72926;SDS011;61071;51.618;19.388;2023-05-07T13:07:37;3.10;;;2.80;;
72926;SDS011;61071;51.618;19.388;2023-05-07T13:10:24;3.47;;;2.60;;
72926;SDS011;61071;51.618;19.388;2023-05-07T13:12:52;4.57;;;3.28;;
72926;SDS011;61071;51.618;19.388;2023-05-07T13:15:18;2.80;;;2.35;;
72926;SDS011;61071;51.618;19.388;2023-05-07T13:17:44;4.13;;;2.25;;
72926;SDS011;61071;51.618;19.388;2023-05-07T13:20:10;3.75;;;3.00;;
72926;SDS011;61071;51.618;19.388;2023-05-07T13:22:37;3.55;;;2.60;;
72926;SDS011;61071;51.618;19.388;2023-05-07T13:25:04;3.08;;;2.40;;
72926;SDS011;61071;51.618;19.388;2023-05-07T13:27:31;3.67;;;2.47;;
72926;SDS011;61071;51.618;19.388;2023-05-07T13:29:57;5.50;;;2.28;;
72926;SDS011;61071;51.618;19.388;2023-05-07T13:32:23;2.38;;;2.10;;
72926;SDS011;61071;51.618;19.388;2023-05-07T13:34:48;5.28;;;2.33;;
72926;SDS011;61071;51.618;19.388;2023-05-07T13:37:14;3.78;;;2.10;;
72926;SDS011;61071;51.618;19.388;2023-05-07T13:39:40;2.70;;;2.10;;
72926;SDS011;61071;51.618;19.388;2023-05-07T13:42:06;4.15;;;2.25;;
72926;SDS011;61071;51.618;19.388;2023-05-07T13:44:32;4.10;;;2.28;;
72926;SDS011;61071;51.618;19.388;2023-05-07T13:46:58;2.58;;;2.33;;
72926;SDS011;61071;51.618;19.388;2023-05-07T13:49:24;2.78;;;2.10;;
72926;SDS011;61071;51.618;19.388;2023-05-07T13:51:50;2.10;;;1.90;;
72926;SDS011;61071;51.618;19.388;2023-05-07T13:54:15;2.67;;;2.22;;
72926;SDS011;61071;51.618;19.388;2023-05-07T13:56:41;2.63;;;2.25;;
72926;SDS011;61071;51.618;19.388;2023-05-07T13:59:07;3.38;;;2.15;;
72926;SDS011;61071;51.618;19.388;2023-05-07T14:01:33;3.10;;;2.22;;
72926;SDS011;61071;51.618;19.388;2023-05-07T14:03:59;3.17;;;2.20;;
72926;SDS011;61071;51.618;19.388;2023-05-07T14:06:25;3.78;;;2.25;;
72926;SDS011;61071;51.618;19.388;2023-05-07T14:08:51;4.75;;;2.00;;
72926;SDS011;61071;51.618;19.388;2023-05-07T14:11:17;4.32;;;2.72;;
72926;SDS011;61071;51.618;19.388;2023-05-07T14:13:43;3.63;;;2.10;;
72926;SDS011;61071;51.618;19.388;2023-05-07T14:16:09;2.15;;;1.80;;
72926;SDS011;61071;51.618;19.388;2023-05-07T14:18:34;4.25;;;2.45;;
72926;SDS011;61071;51.618;19.388;2023-05-07T14:21:02;3.55;;;2.25;;
72926;SDS011;61071;51.618;19.388;2023-05-07T14:23:29;3.08;;;2.35;;
72926;SDS011;61071;51.618;19.388;2023-05-07T14:25:55;7.00;;;2.95;;
72926;SDS011;61071;51.618;19.388;2023-05-07T14:28:22;5.55;;;2.13;;
72926;SDS011;61071;51.618;19.388;2023-05-07T14:30:49;4.75;;;2.72;;
72926;SDS011;61071;51.618;19.388;2023-05-07T14:33:14;4.63;;;2.33;;
72926;SDS011;61071;51.618;19.388;2023-05-07T14:35:40;3.25;;;1.95;;
72926;SDS011;61071;51.618;19.388;2023-05-07T14:38:06;5.43;;;2.15;;
72926;SDS011;61071;51.618;19.388;2023-05-07T14:40:32;4.43;;;2.30;;
72926;SDS011;61071;51.618;19.388;2023-05-07T14:42:57;2.83;;;2.25;;
72926;SDS011;61071;51.618;19.388;2023-05-07T14:45:23;2.92;;;2.20;;
72926;SDS011;61071;51.618;19.388;2023-05-07T14:47:49;2.97;;;2.13;;
72926;SDS011;61071;51.618;19.388;2023-05-07T14:50:15;10.38;;;2.40;;
72926;SDS011;61071;51.618;19.388;2023-05-07T14:52:41;3.13;;;2.00;;
72926;SDS011;61071;51.618;19.388;2023-05-07T14:55:07;4.82;;;2.20;;
72926;SDS011;61071;51.618;19.388;2023-05-07T14:57:33;3.65;;;2.28;;
72926;SDS011;61071;51.618;19.388;2023-05-07T15:00:03;3.30;;;2.42;;